createdAt,value
2023-04-08T00:02:15.477Z,79.22
2023-04-08T00:04:42.815Z,78.86
2023-04-08T00:07:09.709Z,78.78
2023-04-08T00:09:36.698Z,78.80
2023-04-08T00:12:03.794Z,78.43
2023-04-08T00:14:30.685Z,78.00
2023-04-08T00:16:57.853Z,77.99
2023-04-08T00:19:26.231Z,77.68
2023-04-08T00:21:53.704Z,78.42
2023-04-08T00:24:20.621Z,78.49
2023-04-08T00:26:47.526Z,78.61
2023-04-08T00:29:14.554Z,78.24
2023-04-08T00:31:41.558Z,78.46
2023-04-08T00:34:08.536Z,78.12
2023-04-08T00:36:36.802Z,77.90
2023-04-08T00:39:05.012Z,78.32
2023-04-08T00:41:33.439Z,78.46
2023-04-08T00:44:02.451Z,78.35
2023-04-08T00:46:31.235Z,78.26
2023-04-08T00:48:58.331Z,78.66
2023-04-08T00:51:55.419Z,78.63
2023-04-08T00:54:22.905Z,78.13
2023-04-08T00:56:49.834Z,77.77
2023-04-08T00:59:18.498Z,77.93
2023-04-08T01:01:57.416Z,78.77
2023-04-08T01:04:40.247Z,78.45
2023-04-08T01:07:17.318Z,78.57
2023-04-08T01:09:48.697Z,78.28
2023-04-08T01:12:24.773Z,77.80
2023-04-08T01:15:00.234Z,78.94
2023-04-08T01:17:29.081Z,78.23
2023-04-08T01:23:44.149Z,78.34
2023-04-08T01:26:40.536Z,78.41
2023-04-08T01:29:10.866Z,78.87
2023-04-08T01:31:41.666Z,78.94
2023-04-08T01:34:11.478Z,79.44
2023-04-08T01:36:40.479Z,80.24
2023-04-08T01:39:08.793Z,80.50
2023-04-08T01:41:39.344Z,80.35
2023-04-08T01:44:06.840Z,80.04
2023-04-08T01:46:35.894Z,80.14
2023-04-08T01:49:05.583Z,79.59
2023-04-08T01:54:04.453Z,79.43
2023-04-08T01:56:38.246Z,79.47
2023-04-08T01:59:14.142Z,79.19
2023-04-08T02:01:44.305Z,79.39
2023-04-08T02:04:12.759Z,79.52
2023-04-08T02:06:39.940Z,79.32
2023-04-08T02:09:06.863Z,79.85
2023-04-08T02:11:33.915Z,79.17
2023-04-08T02:14:06.608Z,79.51
2023-04-08T02:16:48.578Z,79.57
2023-04-08T02:19:27.938Z,79.64
2023-04-08T02:22:05.617Z,79.37
2023-04-08T02:24:36.557Z,79.70
2023-04-08T02:27:04.509Z,79.71
2023-04-08T02:29:36.726Z,79.63
2023-04-08T02:32:06.360Z,79.44
2023-04-08T02:35:01.934Z,79.32
2023-04-08T02:37:29.609Z,79.72
2023-04-08T02:39:56.800Z,79.59
2023-04-08T02:42:23.829Z,79.33
2023-04-08T02:44:54.770Z,79.37
2023-04-08T02:47:23.087Z,79.92
2023-04-08T02:49:51.574Z,80.24
2023-04-08T02:52:19.346Z,80.11
2023-04-08T02:54:46.281Z,79.83
2023-04-08T02:57:13.288Z,80.14
2023-04-08T02:59:40.145Z,80.15
2023-04-08T03:02:37.152Z,80.12
2023-04-08T03:05:05.058Z,80.51
2023-04-08T03:07:32.064Z,83.08
2023-04-08T03:09:59.423Z,85.70
2023-04-08T03:12:26.671Z,83.90
2023-04-08T03:14:54.060Z,81.88
2023-04-08T03:17:21.707Z,81.27
2023-04-08T03:19:50.059Z,81.10
2023-04-08T03:22:17.271Z,81.08
2023-04-08T03:24:44.262Z,80.91
2023-04-08T03:27:11.382Z,81.03
2023-04-08T03:29:38.580Z,81.49
2023-04-08T03:32:05.719Z,81.75
2023-04-08T03:34:34.457Z,81.85
2023-04-08T03:37:02.909Z,82.17
2023-04-08T03:39:30.305Z,81.87
2023-04-08T03:41:57.497Z,82.20
2023-04-08T03:44:24.404Z,82.46
2023-04-08T03:46:51.235Z,82.55
2023-04-08T03:49:18.190Z,81.77
2023-04-08T03:51:45.037Z,82.19
2023-04-08T03:54:13.475Z,81.87
2023-04-08T03:56:40.373Z,82.29
2023-04-08T03:59:07.510Z,82.29
2023-04-08T04:01:34.346Z,82.42
2023-04-08T04:04:01.786Z,83.30
2023-04-08T04:06:28.839Z,83.79
2023-04-08T04:08:55.660Z,83.81
2023-04-08T04:11:23.852Z,83.53
2023-04-08T04:13:50.899Z,83.33
2023-04-08T04:16:17.698Z,83.60
2023-04-08T04:18:44.636Z,83.65
2023-04-08T04:21:12.245Z,83.51
2023-04-08T04:23:39.134Z,83.07
2023-04-08T04:26:09.076Z,83.39
2023-04-08T04:28:37.984Z,83.61
2023-04-08T04:31:05.513Z,83.87
2023-04-08T04:33:32.420Z,83.61
2023-04-08T04:35:59.633Z,83.70
2023-04-08T04:38:26.734Z,83.40
2023-04-08T04:40:53.617Z,83.55
2023-04-08T04:43:20.547Z,83.35
2023-04-08T04:45:49.419Z,84.25
2023-04-08T04:48:16.244Z,83.93
2023-04-08T04:50:43.123Z,83.55
2023-04-08T04:53:10.024Z,83.43
2023-04-08T04:55:39.097Z,83.84
2023-04-08T04:58:07.628Z,83.17
2023-04-08T05:00:34.456Z,83.39
2023-04-08T05:03:02.745Z,83.29
2023-04-08T05:05:29.647Z,82.73
2023-04-08T05:07:57.087Z,83.07
2023-04-08T05:10:24.032Z,83.15
2023-04-08T05:12:51.022Z,83.24
2023-04-08T05:15:18.506Z,82.58
2023-04-08T05:17:45.373Z,82.16
2023-04-08T05:20:15.852Z,83.12
2023-04-08T05:22:44.319Z,84.28
2023-04-08T05:25:11.820Z,85.70
2023-04-08T05:27:38.904Z,86.20
2023-04-08T05:30:08.206Z,86.63
2023-04-08T05:32:35.319Z,86.79
2023-04-08T05:35:03.059Z,86.99
2023-04-08T05:37:31.639Z,86.09
2023-04-08T05:39:58.708Z,86.98
2023-04-08T05:42:28.891Z,87.30
2023-04-08T05:44:55.866Z,87.72
2023-04-08T05:47:23.526Z,88.47
2023-04-08T05:49:51.329Z,88.33
2023-04-08T05:52:18.459Z,88.17
2023-04-08T05:54:46.620Z,88.54
2023-04-08T05:57:13.499Z,87.06
2023-04-08T05:59:40.582Z,86.99
2023-04-08T06:02:07.868Z,86.12
2023-04-08T06:04:35.245Z,85.58
2023-04-08T06:07:02.167Z,84.55
2023-04-08T06:09:29.394Z,83.44
2023-04-08T06:12:04.772Z,82.72
2023-04-08T06:14:31.746Z,82.59
2023-04-08T06:16:58.718Z,82.29
2023-04-08T06:19:25.643Z,82.19
2023-04-08T06:21:52.726Z,81.40
2023-04-08T06:24:20.384Z,80.84
2023-04-08T06:26:47.819Z,81.18
2023-04-08T06:29:15.960Z,80.34
2023-04-08T06:31:43.131Z,79.85
2023-04-08T06:34:10.066Z,79.78
2023-04-08T06:36:37.200Z,79.15
2023-04-08T06:39:04.553Z,78.18
2023-04-08T06:41:32.732Z,77.93
2023-04-08T06:44:12.721Z,76.83
2023-04-08T06:46:41.258Z,74.42
2023-04-08T06:49:08.215Z,73.21
2023-04-08T06:51:35.389Z,72.70
2023-04-08T06:54:02.323Z,72.70
2023-04-08T06:56:29.277Z,72.30
2023-04-08T06:58:56.582Z,72.49
2023-04-08T07:01:23.534Z,72.67
2023-04-08T07:03:52.292Z,72.17
2023-04-08T07:06:19.239Z,72.58
2023-04-08T07:08:46.184Z,71.51
2023-04-08T07:11:13.118Z,71.02
2023-04-08T07:13:40.303Z,70.29
2023-04-08T07:16:07.359Z,69.67
2023-04-08T07:18:34.231Z,68.53
2023-04-08T07:21:02.961Z,68.43
2023-04-08T07:23:30.194Z,67.41
2023-04-08T07:26:02.940Z,65.96
2023-04-08T07:28:30.059Z,62.46
2023-04-08T07:30:57.001Z,60.46
2023-04-08T07:33:24.295Z,58.99
2023-04-08T07:36:18.210Z,55.46
2023-04-08T07:38:45.552Z,52.91
2023-04-08T07:41:12.740Z,51.01
2023-04-08T07:43:39.883Z,52.57
2023-04-08T07:46:07.746Z,52.24
2023-04-08T07:48:35.426Z,53.39
2023-04-08T07:51:11.311Z,53.95
2023-04-08T07:53:41.853Z,54.12
2023-04-08T07:56:14.158Z,55.97
2023-04-08T07:58:44.225Z,55.46
2023-04-08T08:01:19.400Z,54.75
2023-04-08T08:03:46.893Z,54.95
2023-04-08T08:06:14.148Z,55.19
2023-04-08T08:08:43.045Z,56.06
2023-04-08T08:11:10.273Z,55.62
2023-04-08T08:13:37.491Z,54.64
2023-04-08T08:16:05.123Z,53.53
2023-04-08T08:18:33.401Z,51.80
2023-04-08T08:21:02.077Z,53.49
2023-04-08T08:23:29.862Z,52.28
2023-04-08T08:26:02.464Z,50.93
2023-04-08T08:28:29.879Z,50.90
2023-04-08T08:30:57.207Z,53.22
2023-04-08T08:33:25.589Z,53.82
2023-04-08T08:35:53.196Z,51.31
2023-04-08T08:38:20.328Z,50.07
2023-04-08T08:40:47.464Z,49.37
2023-04-08T08:43:16.073Z,49.56
2023-04-08T08:45:43.470Z,49.88
2023-04-08T08:48:10.643Z,49.53
2023-04-08T08:50:38.328Z,47.25
2023-04-08T08:53:05.921Z,47.76
2023-04-08T08:55:56.793Z,46.92
2023-04-08T08:58:22.502Z,46.23
2023-04-08T09:00:49.511Z,45.61
2023-04-08T09:03:19.377Z,45.43
2023-04-08T09:05:52.447Z,43.69
2023-04-08T09:08:29.015Z,43.19
2023-04-08T09:11:12.176Z,44.28
2023-04-08T09:13:41.215Z,48.25
2023-04-08T09:16:10.353Z,49.28
2023-04-08T09:18:39.038Z,48.35
2023-04-08T09:21:07.828Z,46.93
2023-04-08T09:23:41.110Z,47.79
2023-04-08T09:26:13.920Z,47.85
2023-04-08T09:28:44.732Z,47.64
2023-04-08T09:31:23.699Z,47.43
2023-04-08T09:33:53.772Z,46.60
2023-04-08T09:36:21.344Z,46.77
2023-04-08T09:38:49.555Z,49.23
2023-04-08T09:41:18.396Z,48.90
2023-04-08T09:43:50.032Z,48.92
2023-04-08T09:46:22.447Z,46.13
2023-04-08T09:48:58.286Z,46.95
2023-04-08T09:51:31.905Z,49.38
2023-04-08T09:54:03.857Z,48.09
2023-04-08T09:56:41.688Z,45.48
2023-04-08T09:59:17.490Z,45.25
2023-04-08T10:01:52.521Z,47.35
2023-04-08T10:04:24.235Z,46.85
2023-04-08T10:06:58.131Z,47.29
2023-04-08T10:09:27.366Z,48.18
2023-04-08T10:11:55.771Z,48.36
2023-04-08T10:14:24.287Z,47.48
2023-04-08T10:16:51.355Z,49.11
2023-04-08T10:19:39.472Z,48.64
2023-04-08T10:22:48.277Z,50.31
2023-04-08T10:25:37.845Z,49.82
2023-04-08T10:28:26.468Z,49.13
2023-04-08T10:30:56.586Z,49.44
2023-04-08T10:33:32.412Z,47.45
2023-04-08T10:36:08.960Z,48.60
2023-04-08T10:38:36.061Z,47.49
2023-04-08T10:41:03.730Z,48.13
2023-04-08T10:43:33.352Z,48.36
2023-04-08T10:46:02.285Z,48.59
2023-04-08T10:48:30.149Z,48.41
2023-04-08T10:50:59.726Z,47.65
2023-04-08T10:53:29.224Z,48.13
2023-04-08T10:56:04.872Z,48.49
2023-04-08T10:58:33.162Z,49.21
2023-04-08T11:01:06.377Z,49.82
2023-04-08T11:03:35.317Z,50.57
2023-04-08T11:06:03.568Z,51.82
2023-04-08T11:08:31.485Z,51.58
2023-04-08T11:10:59.135Z,52.24
2023-04-08T11:13:26.444Z,51.29
2023-04-08T11:15:54.351Z,51.58
2023-04-08T11:18:23.973Z,51.05
2023-04-08T11:20:51.933Z,51.66
2023-04-08T11:23:19.684Z,52.97
2023-04-08T11:25:47.875Z,52.25
2023-04-08T11:28:15.291Z,52.88
2023-04-08T11:30:43.326Z,53.73
2023-04-08T11:33:11.360Z,53.51
2023-04-08T11:35:42.869Z,55.69
2023-04-08T11:38:11.734Z,55.55
2023-04-08T11:40:38.932Z,56.50
2023-04-08T11:43:10.412Z,56.61
2023-04-08T11:45:39.937Z,56.83
2023-04-08T11:48:11.161Z,55.97
2023-04-08T11:50:38.346Z,56.41
2023-04-08T11:53:17.517Z,56.25
2023-04-08T11:55:44.656Z,56.50
2023-04-08T11:58:11.522Z,57.45
2023-04-08T12:00:38.880Z,57.23
2023-04-08T12:03:06.946Z,57.42
2023-04-08T12:08:41.738Z,55.24
2023-04-08T12:11:19.269Z,55.35
2023-04-08T12:13:47.972Z,55.09
2023-04-08T12:16:15.377Z,55.60
2023-04-08T12:18:42.429Z,55.75
2023-04-08T12:21:09.439Z,56.63
2023-04-08T12:23:36.525Z,53.61
2023-04-08T12:26:05.661Z,53.95
2023-04-08T12:28:32.772Z,53.44
2023-04-08T12:30:59.811Z,52.11
2023-04-08T12:33:27.459Z,50.94
2023-04-08T12:35:54.480Z,49.47
2023-04-08T12:38:21.698Z,51.99
2023-04-08T12:40:50.180Z,49.02
2023-04-08T12:43:18.684Z,49.58
2023-04-08T12:45:45.915Z,49.04
2023-04-08T12:48:12.761Z,49.50
2023-04-08T12:50:40.082Z,50.21
2023-04-08T12:53:07.279Z,48.95
2023-04-08T12:55:34.191Z,48.68
2023-04-08T12:58:01.118Z,49.28
2023-04-08T13:00:29.434Z,48.63
2023-04-08T13:02:56.397Z,47.73
2023-04-08T13:05:39.795Z,46.15
2023-04-08T13:08:10.408Z,45.34
2023-04-08T13:10:37.378Z,45.85
2023-04-08T13:13:04.393Z,45.70
2023-04-08T13:15:32.794Z,45.23
2023-04-08T13:17:59.815Z,45.55
2023-04-08T13:20:27.704Z,45.37
2023-04-08T13:22:55.489Z,46.26
2023-04-08T13:25:22.996Z,47.24
2023-04-08T13:27:49.908Z,47.50
2023-04-08T13:30:16.835Z,47.12
2023-04-08T13:32:45.450Z,46.53
2023-04-08T13:35:12.647Z,49.10
2023-04-08T13:37:39.632Z,47.83
2023-04-08T13:40:07.753Z,48.77
2023-04-08T13:42:34.815Z,47.22
2023-04-08T13:45:01.824Z,46.95
2023-04-08T13:47:29.007Z,45.67
2023-04-08T13:49:57.316Z,44.99
2023-04-08T13:52:24.391Z,45.73
2023-04-08T13:54:51.693Z,44.18
2023-04-08T13:57:18.512Z,45.09
2023-04-08T13:59:45.391Z,45.33
2023-04-08T14:02:13.032Z,45.15
2023-04-08T14:04:40.418Z,47.16
2023-04-08T14:07:09.468Z,46.64
2023-04-08T14:09:36.445Z,46.85
2023-04-08T14:12:03.470Z,47.67
2023-04-08T14:14:30.810Z,48.56
2023-04-08T14:16:57.909Z,48.44
2023-04-08T14:19:25.274Z,48.32
2023-04-08T14:21:55.760Z,49.44
2023-04-08T14:24:23.999Z,50.08
2023-04-08T14:26:51.216Z,50.55
2023-04-08T14:29:18.219Z,51.48
2023-04-08T14:31:45.712Z,51.89
2023-04-08T14:34:12.567Z,52.13
2023-04-08T14:36:39.510Z,51.78
2023-04-08T14:39:06.868Z,51.77
2023-04-08T14:41:35.234Z,50.98
2023-04-08T14:44:02.120Z,51.29
2023-04-08T14:46:29.368Z,51.68
2023-04-08T14:48:56.494Z,52.05
2023-04-08T14:51:23.415Z,51.97
2023-04-08T14:53:50.496Z,53.28
2023-04-08T14:56:17.812Z,52.39
2023-04-08T14:58:46.777Z,52.33
2023-04-08T15:01:14.333Z,52.13
2023-04-08T15:03:41.332Z,52.59
2023-04-08T15:06:08.954Z,53.78
2023-04-08T15:08:36.177Z,54.46
2023-04-08T15:11:03.161Z,56.95
2023-04-08T15:13:30.085Z,57.13
2023-04-08T15:15:58.455Z,57.83
2023-04-08T15:18:25.696Z,58.04
2023-04-08T15:20:52.732Z,58.33
2023-04-08T15:23:19.991Z,59.06
2023-04-08T15:25:46.886Z,57.22
2023-04-08T15:28:14.250Z,57.97
2023-04-08T15:30:41.883Z,58.67
2023-04-08T15:33:10.793Z,58.41
2023-04-08T15:35:38.622Z,58.57
2023-04-08T15:38:05.503Z,59.17
2023-04-08T15:40:34.120Z,58.59
2023-04-08T15:43:01.348Z,58.08
2023-04-08T15:45:28.219Z,60.27
2023-04-08T15:47:55.303Z,59.98
2023-04-08T15:50:23.589Z,59.75
2023-04-08T15:52:50.781Z,59.58
2023-04-08T15:55:17.936Z,60.27
2023-04-08T15:57:45.061Z,59.14
2023-04-08T16:00:16.107Z,59.32
2023-04-08T16:02:44.098Z,59.52
2023-04-08T16:05:11.527Z,58.75
2023-04-08T16:07:40.080Z,58.37
2023-04-08T16:10:08.605Z,58.71
2023-04-08T16:12:35.522Z,58.72
2023-04-08T16:15:02.665Z,60.06
2023-04-08T16:17:29.779Z,60.12
2023-04-08T16:19:57.059Z,60.74
2023-04-08T16:22:24.466Z,60.46
2023-04-08T16:24:52.777Z,61.02
2023-04-08T16:27:19.610Z,60.67
2023-04-08T16:29:53.564Z,61.55
2023-04-08T16:32:22.817Z,61.84
2023-04-08T16:34:51.433Z,61.95
2023-04-08T16:37:18.696Z,61.93
2023-04-08T16:39:45.806Z,61.86
2023-04-08T16:42:14.230Z,61.38
2023-04-08T16:44:41.092Z,61.99
2023-04-08T16:47:08.199Z,60.56
2023-04-08T16:49:36.056Z,60.97
2023-04-08T16:52:03.015Z,60.33
2023-04-08T16:54:30.576Z,60.86
2023-04-08T16:56:57.673Z,60.89
2023-04-08T16:59:27.515Z,61.10
2023-04-08T17:01:54.725Z,60.76
2023-04-08T17:04:21.760Z,60.86
2023-04-08T17:06:48.979Z,61.36
2023-04-08T17:09:15.900Z,61.38
2023-04-08T17:11:43.125Z,62.21
2023-04-08T17:14:10.145Z,61.12
2023-04-08T17:16:38.660Z,61.58
2023-04-08T17:19:05.697Z,61.44
2023-04-08T17:21:32.691Z,61.76
2023-04-08T17:23:59.858Z,62.11
2023-04-08T17:26:27.005Z,62.83
2023-04-08T17:28:53.876Z,62.62
2023-04-08T17:31:21.048Z,63.09
2023-04-08T17:33:50.085Z,63.21
2023-04-08T17:36:17.208Z,63.06
2023-04-08T17:38:44.518Z,62.75
2023-04-08T17:41:11.946Z,62.80
2023-04-08T17:43:39.525Z,63.45
2023-04-08T17:46:06.657Z,62.63
2023-04-08T17:48:33.898Z,63.87
2023-04-08T17:51:04.474Z,63.23
2023-04-08T17:53:32.471Z,63.23
2023-04-08T17:56:00.292Z,63.23
2023-04-08T17:58:27.275Z,63.51
2023-04-08T18:00:54.267Z,64.25
2023-04-08T18:03:21.525Z,64.18
2023-04-08T18:05:48.879Z,64.36
2023-04-08T18:08:17.217Z,63.76
2023-04-08T18:10:45.720Z,64.39
2023-04-08T18:13:13.792Z,65.45
2023-04-08T18:15:40.981Z,64.19
2023-04-08T18:18:07.961Z,64.81
2023-04-08T18:20:35.850Z,64.84
2023-04-08T18:23:02.966Z,66.13
2023-04-08T18:25:31.884Z,65.72
2023-04-08T18:27:58.835Z,64.24
2023-04-08T18:30:26.085Z,65.03
2023-04-08T18:32:53.092Z,65.20
2023-04-08T18:35:20.579Z,64.00
2023-04-08T18:37:47.635Z,65.52
2023-04-08T18:40:14.488Z,66.25
2023-04-08T18:42:42.762Z,66.77
2023-04-08T18:45:09.923Z,66.46
2023-04-08T18:47:39.818Z,65.77
2023-04-08T18:50:07.395Z,66.05
2023-04-08T18:52:34.284Z,65.07
2023-04-08T18:55:01.164Z,64.92
2023-04-08T18:57:28.406Z,66.13
2023-04-08T18:59:57.030Z,65.70
2023-04-08T19:02:24.085Z,65.91
2023-04-08T19:05:21.984Z,66.10
2023-04-08T19:07:49.115Z,67.00
2023-04-08T19:10:16.207Z,66.47
2023-04-08T19:12:43.155Z,65.52
2023-04-08T19:15:13.213Z,65.32
2023-04-08T19:17:40.206Z,65.32
2023-04-08T19:20:08.901Z,65.72
2023-04-08T19:22:36.015Z,65.69
2023-04-08T19:25:03.227Z,65.85
2023-04-08T19:27:30.088Z,66.31
2023-04-08T19:29:57.212Z,65.43
2023-04-08T19:32:25.780Z,65.99
2023-04-08T19:34:52.679Z,65.22
2023-04-08T19:37:19.561Z,65.81
2023-04-08T19:39:46.627Z,66.36
2023-04-08T19:42:14.063Z,65.99
2023-04-08T19:44:41.123Z,66.02
2023-04-08T19:47:07.971Z,66.71
2023-04-08T19:49:36.597Z,67.50
2023-04-08T19:52:03.688Z,66.74
2023-04-08T19:54:30.675Z,66.25
2023-04-08T19:56:58.364Z,65.95
2023-04-08T19:59:25.848Z,66.13
2023-04-08T20:01:52.845Z,65.26
2023-04-08T20:04:20.010Z,66.76
2023-04-08T20:06:48.482Z,66.98
2023-04-08T20:10:07.120Z,66.31
2023-04-08T20:12:34.440Z,67.45
2023-04-08T20:15:01.850Z,68.04
2023-04-08T20:17:29.160Z,68.25
2023-04-08T20:19:56.236Z,68.47
2023-04-08T20:22:24.522Z,66.86
2023-04-08T20:24:51.698Z,66.87
2023-04-08T20:27:18.607Z,66.91
2023-04-08T20:29:45.702Z,67.14
2023-04-08T20:32:12.704Z,66.80
2023-04-08T20:34:39.714Z,67.61
2023-04-08T20:37:06.821Z,67.46
2023-04-08T20:39:35.156Z,67.71
2023-04-08T20:42:02.137Z,67.82
2023-04-08T20:44:29.005Z,66.42
2023-04-08T20:46:55.915Z,67.43
2023-04-08T20:49:22.806Z,67.19
2023-04-08T20:51:49.732Z,67.63
2023-04-08T20:54:16.620Z,68.08
2023-04-08T20:56:45.160Z,68.55
2023-04-08T20:59:12.005Z,68.63
2023-04-08T21:01:39.312Z,67.78
2023-04-08T21:04:06.238Z,68.40
2023-04-08T21:06:33.113Z,68.44
2023-04-08T21:08:59.955Z,68.69
2023-04-08T21:11:27.037Z,68.66
2023-04-08T21:13:55.362Z,67.75
2023-04-08T21:16:22.740Z,67.97
2023-04-08T21:18:49.979Z,67.97
2023-04-08T21:21:17.006Z,68.70
2023-04-08T21:23:43.965Z,68.47
2023-04-08T21:26:11.985Z,68.17
2023-04-08T21:28:38.892Z,68.09
2023-04-08T21:31:10.883Z,68.53
2023-04-08T21:33:38.194Z,69.14
2023-04-08T21:36:06.400Z,70.89
2023-04-08T21:38:34.303Z,72.31
2023-04-08T21:41:01.532Z,71.97
2023-04-08T21:43:28.545Z,71.55
2023-04-08T21:45:55.425Z,70.94
2023-04-08T21:48:23.691Z,70.83
2023-04-08T21:50:50.850Z,71.21
2023-04-08T21:53:17.688Z,71.37
2023-04-08T21:55:44.866Z,71.44
2023-04-08T21:58:12.018Z,70.87
2023-04-08T22:00:39.389Z,70.73
2023-04-08T22:03:06.777Z,70.79
2023-04-08T22:05:50.718Z,70.88
2023-04-08T22:08:18.083Z,71.08
2023-04-08T22:10:45.414Z,71.26
2023-04-08T22:13:12.715Z,71.41
2023-04-08T22:15:39.690Z,72.54
2023-04-08T22:18:06.642Z,71.89
2023-04-08T22:21:24.976Z,71.86
2023-04-08T22:23:51.861Z,72.69
2023-04-08T22:26:44.908Z,73.81
2023-04-08T22:29:12.159Z,72.48
2023-04-08T22:31:39.548Z,72.47
2023-04-08T22:34:06.661Z,72.44
2023-04-08T22:36:34.941Z,73.32
2023-04-08T22:39:02.256Z,73.91
2023-04-08T22:41:29.117Z,74.80
2023-04-08T22:43:56.277Z,74.05
2023-04-08T22:46:23.285Z,73.11
2023-04-08T22:48:50.695Z,72.21
2023-04-08T22:51:18.292Z,72.26
2023-04-08T22:53:46.536Z,72.20
2023-04-08T22:56:32.243Z,73.24
2023-04-08T22:58:59.280Z,73.23
2023-04-08T23:01:26.403Z,73.79
2023-04-08T23:03:53.597Z,74.26
2023-04-08T23:06:20.568Z,74.21
2023-04-08T23:08:49.296Z,73.89
2023-04-08T23:11:16.173Z,74.02
2023-04-08T23:13:43.043Z,74.14
2023-04-08T23:16:10.136Z,73.59
2023-04-08T23:18:37.246Z,73.39
2023-04-08T23:21:04.766Z,73.40
2023-04-08T23:23:31.764Z,73.03
2023-04-08T23:26:00.032Z,72.32
2023-04-08T23:28:27.133Z,72.44
2023-04-08T23:31:46.105Z,72.25
2023-04-08T23:34:13.089Z,72.30
2023-04-08T23:36:40.297Z,72.49
2023-04-08T23:39:08.227Z,72.74
2023-04-08T23:41:36.912Z,73.09
2023-04-08T23:44:04.319Z,72.79
2023-04-08T23:46:31.372Z,72.93
2023-04-08T23:48:58.274Z,72.28
2023-04-08T23:51:25.526Z,72.41
2023-04-08T23:53:52.363Z,72.16
2023-04-08T23:56:19.548Z,72.32
2023-04-08T23:58:48.097Z,71.84
